Time;durP1;ratioP1;P1;durP2;ratioP2;P2;SDS_P1;SDS_P2;PMS_P1;PMS_P2;Temp;Humidity;BMP_temperature;BMP_pressure;BME280_temperature;BME280_humidity;BME280_pressure;Samples;Min_cycle;Max_cycle;Signal;HPM_P1;HPM_P2
2023/07/04 00:01:32;;;;;;;186.80;178.85;;;11.20;99.90;;;;;;5011644;28;20125;-69
2023/07/04 00:03:58;;;;;;;152.32;145.18;;;11.10;99.90;;;;;;5039457;28;20117;-69
2023/07/04 00:06:28;;;;;;;135.75;129.75;;;11.00;99.90;;;;;;5024677;28;20037;-69
2023/07/04 00:08:54;;;;;;;144.73;138.23;;;11.00;99.90;;;;;;5029020;28;20492;-69
2023/07/04 00:11:20;;;;;;;157.80;150.90;;;10.90;99.90;;;;;;5011603;28;20095;-69
2023/07/04 00:13:47;;;;;;;176.13;168.50;;;10.90;99.90;;;;;;5012155;28;20049;-69
2023/07/04 00:16:14;;;;;;;180.50;172.48;;;10.90;99.90;;;;;;5023672;28;20037;-69
2023/07/04 00:18:41;;;;;;;195.90;187.63;;;10.90;99.90;;;;;;5023790;28;20042;-69
2023/07/04 00:21:12;;;;;;;1103.35;598.95;;;10.90;99.90;;;;;;5027972;28;20497;-69
2023/07/04 00:23:38;;;;;;;189.43;181.27;;;10.90;99.90;;;;;;5010177;28;20091;-69
2023/07/04 00:26:07;;;;;;;642.25;386.20;;;10.80;99.90;;;;;;5025722;28;20053;-69
2023/07/04 00:28:33;;;;;;;625.95;370.63;;;10.80;99.90;;;;;;5027831;28;20091;-69
2023/07/04 00:31:02;;;;;;;193.02;184.63;;;10.70;99.90;;;;;;5027089;28;20493;-69
2023/07/04 00:33:28;;;;;;;188.13;180.30;;;10.70;99.90;;;;;;5038481;28;20088;-69
2023/07/04 00:36:16;;;;;;;1555.05;802.72;;;10.70;99.90;;;;;;5025750;28;20120;-69
2023/07/04 00:38:42;;;;;;;1106.55;601.63;;;10.70;99.90;;;;;;5041710;28;20287;-69
2023/07/04 00:41:20;;;;;;;1999.90;999.90;;;10.70;99.90;;;;;;5023814;28;20045;-69
2023/07/04 00:44:13;;;;;;;1999.90;999.90;;;10.70;99.90;;;;;;5022014;28;20064;-69
2023/07/04 00:46:54;;;;;;;1999.90;999.90;;;10.60;99.90;;;;;;5026859;28;20034;-69
2023/07/04 00:49:41;;;;;;;1999.90;999.90;;;10.60;99.90;;;;;;5026163;28;20041;-69
2023/07/04 00:52:11;;;;;;;1999.90;999.90;;;10.60;99.90;;;;;;4999168;28;20457;-68
2023/07/04 00:54:52;;;;;;;1999.90;999.90;;;10.60;99.90;;;;;;5011040;28;20051;-69
2023/07/04 00:57:25;;;;;;;1999.90;999.90;;;10.60;99.90;;;;;;5026121;28;20045;-69
2023/07/04 00:59:57;;;;;;;1999.90;999.90;;;10.50;99.90;;;;;;5028532;28;20045;-69
2023/07/04 01:02:26;;;;;;;1999.90;999.90;;;10.50;99.90;;;;;;5019542;28;20030;-69
2023/07/04 01:04:52;;;;;;;1999.90;999.90;;;10.50;99.90;;;;;;5043037;28;20045;-69
2023/07/04 01:07:58;;;;;;;1999.90;999.90;;;10.50;99.90;;;;;;5023981;28;20033;-69
2023/07/04 01:10:36;;;;;;;1999.90;999.90;;;10.50;99.90;;;;;;5020823;28;20085;-69
2023/07/04 01:13:02;;;;;;;1999.90;999.90;;;10.50;99.90;;;;;;5024499;28;20053;-69
2023/07/04 01:15:29;;;;;;;1999.90;999.90;;;10.50;99.90;;;;;;5024892;28;20042;-69
2023/07/04 01:17:56;;;;;;;1548.95;796.92;;;10.50;99.90;;;;;;5028170;28;20041;-69
2023/07/04 01:20:22;;;;;;;1546.28;794.38;;;10.50;99.90;;;;;;5026944;28;20116;-69
2023/07/04 01:22:54;;;;;;;1545.20;793.30;;;10.60;99.90;;;;;;5015934;28;20512;-69
2023/07/04 01:25:32;;;;;;;1541.28;789.50;;;10.60;99.90;;;;;;5026820;28;20149;-69
2023/07/04 01:28:02;;;;;;;1547.10;795.08;;;10.60;99.90;;;;;;5028681;28;20502;-69
2023/07/04 01:30:38;;;;;;;1541.20;789.38;;;10.60;99.90;;;;;;5023241;28;20044;-69
2023/07/04 01:33:05;;;;;;;158.18;151.25;;;10.70;99.90;;;;;;5027065;28;20408;-69
2023/07/04 01:35:33;;;;;;;161.77;154.70;;;10.70;99.90;;;;;;5027204;28;20067;-69
2023/07/04 01:37:59;;;;;;;157.77;150.30;;;10.80;99.90;;;;;;5043835;28;20039;-69
2023/07/04 01:40:25;;;;;;;162.38;155.23;;;10.80;99.90;;;;;;5024610;28;20037;-68
2023/07/04 01:42:52;;;;;;;156.68;149.93;;;10.90;99.90;;;;;;5024125;28;20088;-69
2023/07/04 01:45:18;;;;;;;1543.07;791.20;;;10.90;99.90;;;;;;5026848;28;20049;-69
2023/07/04 01:47:44;;;;;;;1543.53;791.63;;;10.90;99.90;;;;;;5005259;28;20486;-68
2023/07/04 01:50:11;;;;;;;167.35;160.35;;;10.90;99.90;;;;;;5019653;28;20072;-69
2023/07/04 01:52:39;;;;;;;174.50;166.73;;;11.00;99.90;;;;;;5024590;28;20041;-68
2023/07/04 01:55:06;;;;;;;168.63;161.38;;;10.90;99.90;;;;;;5020943;28;20037;-69
2023/07/04 01:57:32;;;;;;;165.13;157.77;;;11.00;99.90;;;;;;5010764;28;20045;-69
2023/07/04 01:59:57;;;;;;;174.40;167.05;;;11.00;99.90;;;;;;5024772;28;20041;-69
2023/07/04 02:02:23;;;;;;;169.38;162.05;;;11.00;99.90;;;;;;5027028;28;20532;-69
2023/07/04 02:04:49;;;;;;;163.43;156.20;;;11.10;99.90;;;;;;5043377;28;20064;-69
2023/07/04 02:07:15;;;;;;;157.13;150.45;;;11.20;99.90;;;;;;5043901;28;20049;-69
2023/07/04 02:09:42;;;;;;;160.48;153.43;;;11.20;99.90;;;;;;5041356;28;20057;-69
2023/07/04 02:12:09;;;;;;;158.13;151.35;;;11.30;99.90;;;;;;5010052;28;20049;-69
2023/07/04 02:14:34;;;;;;;159.10;152.27;;;11.30;99.90;;;;;;5026471;28;20041;-69
2023/07/04 02:17:00;;;;;;;163.48;156.23;;;11.30;99.90;;;;;;5026114;28;20049;-69
2023/07/04 02:19:26;;;;;;;148.95;142.15;;;11.40;99.90;;;;;;5023360;28;20048;-69
2023/07/04 02:21:51;;;;;;;167.80;160.35;;;11.40;99.90;;;;;;5026858;28;20041;-69
2023/07/04 02:24:17;;;;;;;164.95;158.07;;;11.50;99.90;;;;;;5022102;28;20557;-69
2023/07/04 02:26:43;;;;;;;166.00;158.85;;;11.50;99.90;;;;;;5023404;28;20053;-69
2023/07/04 02:29:08;;;;;;;176.20;168.57;;;11.50;99.90;;;;;;5035898;28;20033;-69
2023/07/04 02:31:34;;;;;;;162.15;154.93;;;11.60;99.90;;;;;;5007450;28;20072;-69
2023/07/04 02:33:59;;;;;;;162.45;155.55;;;11.60;99.90;;;;;;5026147;28;20087;-69
2023/07/04 02:36:25;;;;;;;190.43;182.48;;;11.60;99.90;;;;;;5025816;28;20046;-69
2023/07/04 02:38:51;;;;;;;163.77;156.85;;;11.70;99.90;;;;;;5023361;28;20052;-69
2023/07/04 02:41:16;;;;;;;181.13;173.63;;;11.70;99.90;;;;;;5016533;28;20032;-69
2023/07/04 02:43:42;;;;;;;173.50;165.85;;;11.80;99.90;;;;;;5025321;28;20465;-69
2023/07/04 02:46:08;;;;;;;158.15;151.25;;;11.80;99.90;;;;;;5026335;28;20045;-69
2023/07/04 02:48:34;;;;;;;177.55;169.50;;;11.90;99.90;;;;;;5031707;28;20124;-69
2023/07/04 02:51:01;;;;;;;180.70;173.20;;;12.00;99.90;;;;;;5025501;28;20091;-69
2023/07/04 02:53:27;;;;;;;192.60;184.77;;;12.00;99.90;;;;;;5017875;28;20107;-69
2023/07/04 02:55:54;;;;;;;151.95;145.35;;;12.10;99.90;;;;;;5008881;28;20098;-69
2023/07/04 02:58:20;;;;;;;145.68;139.52;;;12.20;99.90;;;;;;5042515;28;20045;-69
2023/07/04 03:00:50;;;;;;;144.15;138.07;;;12.10;99.90;;;;;;5032896;28;20041;-68
2023/07/04 03:03:17;;;;;;;115.82;110.93;;;12.10;99.90;;;;;;5025758;28;20507;-69
2023/07/04 03:05:44;;;;;;;124.32;119.05;;;12.20;99.90;;;;;;5023413;28;20125;-69
2023/07/04 03:08:09;;;;;;;106.47;101.95;;;12.20;99.90;;;;;;5023192;28;20056;-69
2023/07/04 03:10:35;;;;;;;85.32;81.72;;;12.10;99.90;;;;;;5025515;28;20144;-69
2023/07/04 03:13:01;;;;;;;92.25;88.13;;;12.10;99.90;;;;;;5025656;28;20041;-69
2023/07/04 03:15:26;;;;;;;90.40;86.28;;;12.00;99.90;;;;;;5025005;28;20565;-69
2023/07/04 03:17:53;;;;;;;81.57;77.85;;;12.00;99.90;;;;;;5042431;28;20045;-69
2023/07/04 03:20:19;;;;;;;82.70;79.13;;;11.90;99.90;;;;;;5025397;28;20120;-68
2023/07/04 03:22:45;;;;;;;79.70;76.22;;;11.90;99.90;;;;;;5023830;28;20074;-69
2023/07/04 03:25:11;;;;;;;80.70;77.20;;;11.80;99.90;;;;;;5025250;28;20393;-69
2023/07/04 03:27:39;;;;;;;83.47;79.70;;;11.70;99.90;;;;;;5027425;28;20049;-68
2023/07/04 03:30:07;;;;;;;81.57;77.97;;;11.70;99.90;;;;;;5018308;28;21109;-69
2023/07/04 03:32:33;;;;;;;82.18;78.50;;;11.60;99.90;;;;;;5044479;28;20037;-69
2023/07/04 03:35:03;;;;;;;80.63;77.20;;;11.60;99.90;;;;;;5012723;28;20092;-69
2023/07/04 03:37:30;;;;;;;80.90;77.30;;;11.70;99.90;;;;;;5026804;28;20033;-69
2023/07/04 03:39:57;;;;;;;81.80;78.38;;;11.70;99.90;;;;;;5030096;28;20045;-69
2023/07/04 03:42:26;;;;;;;89.60;85.82;;;11.70;99.90;;;;;;5020958;28;20045;-69
2023/07/04 03:44:52;;;;;;;89.32;85.45;;;11.70;99.90;;;;;;5028948;28;20050;-69
2023/07/04 03:47:19;;;;;;;88.57;84.63;;;11.70;99.90;;;;;;5029566;28;20037;-69
2023/07/04 03:49:44;;;;;;;91.45;87.55;;;11.70;99.90;;;;;;5030995;28;20041;-69
2023/07/04 03:52:10;;;;;;;79.97;76.55;;;11.60;99.90;;;;;;5042363;28;20421;-69
2023/07/04 03:54:36;;;;;;;90.72;86.65;;;11.60;99.90;;;;;;5012602;28;20044;-69
2023/07/04 03:57:02;;;;;;;88.63;84.80;;;11.70;99.90;;;;;;5022594;28;20350;-69
2023/07/04 03:59:28;;;;;;;92.05;88.28;;;11.60;99.90;;;;;;5023990;28;20029;-69
2023/07/04 04:01:53;;;;;;;89.32;85.32;;;11.50;99.90;;;;;;5024865;28;20049;-69
2023/07/04 04:04:20;;;;;;;90.20;86.38;;;11.50;99.90;;;;;;5011575;28;20037;-69
2023/07/04 04:06:51;;;;;;;92.03;88.07;;;11.50;99.90;;;;;;5027810;28;20650;-69
2023/07/04 04:09:16;;;;;;;91.32;87.25;;;11.50;99.90;;;;;;5028091;28;20033;-69
2023/07/04 04:11:42;;;;;;;84.53;80.82;;;11.50;99.90;;;;;;5012570;28;20124;-69
2023/07/04 04:14:09;;;;;;;85.57;81.82;;;11.70;99.90;;;;;;5028987;28;20065;-69
2023/07/04 04:16:35;;;;;;;86.35;82.60;;;11.70;99.90;;;;;;5043950;28;20072;-69
2023/07/04 04:19:01;;;;;;;99.65;95.50;;;11.80;99.90;;;;;;5024105;28;20045;-69
2023/07/04 04:21:27;;;;;;;92.20;88.28;;;11.90;99.90;;;;;;5007272;28;20046;-69
2023/07/04 04:23:53;;;;;;;100.05;95.82;;;12.00;99.90;;;;;;5041374;28;20101;-69
2023/07/04 04:26:24;;;;;;;107.80;103.15;;;12.00;99.90;;;;;;5028474;28;20054;-69
2023/07/04 04:28:50;;;;;;;115.38;110.35;;;12.10;99.90;;;;;;5022559;28;20555;-69
2023/07/04 04:31:16;;;;;;;103.90;99.45;;;12.10;99.90;;;;;;5028377;28;20159;-69
2023/07/04 04:33:42;;;;;;;105.40;100.72;;;12.20;99.90;;;;;;5022534;28;20065;-69
2023/07/04 04:36:08;;;;;;;104.88;100.47;;;12.20;99.90;;;;;;5043702;28;20037;-69
2023/07/04 04:38:36;;;;;;;101.63;97.13;;;12.30;99.90;;;;;;5041440;28;20042;-69
2023/07/04 04:41:06;;;;;;;86.30;82.53;;;12.40;99.90;;;;;;5011375;28;20053;-69
2023/07/04 04:43:32;;;;;;;98.40;94.13;;;12.40;99.90;;;;;;5025873;28;20425;-69
2023/07/04 04:46:02;;;;;;;93.68;89.30;;;12.60;99.90;;;;;;5037605;28;20060;-69
2023/07/04 04:48:35;;;;;;;82.70;78.85;;;12.60;99.90;;;;;;5027293;28;20497;-69
2023/07/04 04:51:22;;;;;;;83.97;80.20;;;12.70;99.90;;;;;;5026652;28;20072;-69
2023/07/04 04:53:48;;;;;;;84.78;81.10;;;12.70;99.90;;;;;;5020516;28;20561;-69
2023/07/04 04:56:14;;;;;;;85.53;81.70;;;12.70;99.90;;;;;;5027769;28;20152;-69
2023/07/04 04:58:48;;;;;;;84.53;80.78;;;12.80;99.90;;;;;;5028115;28;20509;-69
2023/07/04 05:01:15;;;;;;;;;;;12.80;99.90;;;;;;5027532;28;20091;-69
2023/07/04 05:03:42;;;;;;;81.65;77.75;;;12.90;99.90;;;;;;5005482;28;20526;-69
2023/07/04 05:06:08;;;;;;;81.93;78.13;;;13.00;99.90;;;;;;5025987;28;20045;-69
2023/07/04 05:08:34;;;;;;;87.63;83.43;;;13.00;99.90;;;;;;5027392;28;20386;-69
2023/07/04 05:11:06;;;;;;;88.97;85.03;;;13.10;99.90;;;;;;5027350;28;20124;-69
2023/07/04 05:13:37;;;;;;;80.97;77.28;;;13.20;99.90;;;;;;5028126;28;20045;-69
2023/07/04 05:16:05;;;;;;;86.38;82.60;;;13.20;99.90;;;;;;5018145;28;20038;-69
2023/07/04 05:18:31;;;;;;;89.88;85.80;;;13.20;99.90;;;;;;5024625;28;20041;-69
2023/07/04 05:21:06;;;;;;;88.43;84.25;;;13.30;99.90;;;;;;5035789;28;20037;-69
2023/07/04 05:23:34;;;;;;;77.05;73.20;;;13.40;99.90;;;;;;5025632;28;20065;-69
2023/07/04 05:26:01;;;;;;;84.32;80.38;;;13.40;99.90;;;;;;5027273;28;20051;-69
2023/07/04 05:28:27;;;;;;;76.15;72.57;;;13.50;99.90;;;;;;5027598;28;20048;-69
2023/07/04 05:31:01;;;;;;;79.38;75.28;;;13.60;99.90;;;;;;5025390;28;20041;-69
2023/07/04 05:33:27;;;;;;;71.50;68.10;;;13.60;99.90;;;;;;5040136;28;20401;-69
2023/07/04 05:36:08;;;;;;;77.38;73.75;;;13.70;99.90;;;;;;5009264;28;20041;-69
2023/07/04 05:38:35;;;;;;;71.25;67.80;;;13.80;99.90;;;;;;5026817;28;20036;-69
2023/07/04 05:41:01;;;;;;;77.68;73.93;;;13.90;99.90;;;;;;5005590;28;20072;-69
2023/07/04 05:43:27;;;;;;;73.82;70.32;;;13.90;99.90;;;;;;5037841;28;20517;-69
2023/07/04 05:45:54;;;;;;;79.95;76.32;;;14.00;99.90;;;;;;5023369;28;20046;-69
2023/07/04 05:48:20;;;;;;;80.20;76.40;;;14.10;99.90;;;;;;5028659;28;20041;-69
2023/07/04 05:51:07;;;;;;;85.45;81.45;;;14.20;99.90;;;;;;5007732;28;20049;-69
2023/07/04 05:53:35;;;;;;;78.05;74.18;;;14.30;99.90;;;;;;5014742;28;20083;-69
2023/07/04 05:56:15;;;;;;;84.25;80.38;;;14.30;99.90;;;;;;5041614;28;20107;-69
2023/07/04 05:58:42;;;;;;;82.53;79.03;;;14.40;99.90;;;;;;5008158;28;20094;-69
2023/07/04 06:01:10;;;;;;;83.47;79.72;;;14.50;99.90;;;;;;5026652;28;20128;-70
2023/07/04 06:03:37;;;;;;;81.10;77.40;;;14.60;99.90;;;;;;5010186;28;20048;-69
2023/07/04 06:06:14;;;;;;;84.60;80.85;;;14.70;99.90;;;;;;5043345;28;20386;-70
2023/07/04 06:08:41;;;;;;;82.57;79.00;;;14.80;99.90;;;;;;5024793;28;20393;-69
2023/07/04 06:11:07;;;;;;;88.65;84.82;;;15.00;99.90;;;;;;5013662;28;20045;-69
2023/07/04 06:13:33;;;;;;;80.15;76.55;;;15.10;99.90;;;;;;5008702;28;20394;-70
2023/07/04 06:16:02;;;;;;;87.85;84.10;;;15.20;99.90;;;;;;5026632;28;20508;-69
2023/07/04 06:18:28;;;;;;;106.97;102.43;;;15.30;99.90;;;;;;5026885;28;20041;-69
2023/07/04 06:21:14;;;;;;;91.43;87.32;;;15.40;99.90;;;;;;5024922;28;20128;-70
2023/07/04 06:23:41;;;;;;;166.05;159.05;;;15.60;99.90;;;;;;5019163;28;20568;-69
2023/07/04 06:26:07;;;;;;;116.78;111.68;;;15.70;99.90;;;;;;5025075;28;20052;-70
2023/07/04 06:28:34;;;;;;;254.38;243.48;;;15.80;99.90;;;;;;5009471;28;20045;-70
2023/07/04 06:31:05;;;;;;;107.78;103.18;;;15.90;99.90;;;;;;5018979;28;20125;-70
2023/07/04 06:33:32;;;;;;;180.55;172.93;;;15.90;99.90;;;;;;5036689;28;20046;-69
2023/07/04 06:35:58;;;;;;;228.60;218.95;;;16.00;99.90;;;;;;5026486;28;20079;-70
2023/07/04 06:38:24;;;;;;;249.20;238.23;;;16.20;99.90;;;;;;5040732;28;20041;-70
2023/07/04 06:40:58;;;;;;;161.32;154.25;;;16.30;99.90;;;;;;5024841;28;20052;-70
2023/07/04 06:43:25;;;;;;;271.23;258.97;;;16.30;99.90;;;;;;5015183;28;20085;-70
2023/07/04 06:45:51;;;;;;;198.23;189.52;;;16.70;99.90;;;;;;5006712;28;20476;-70
2023/07/04 06:48:16;;;;;;;225.60;215.40;;;16.80;99.90;;;;;;5040320;28;20132;-70
2023/07/04 06:50:45;;;;;;;293.58;280.88;;;16.90;99.90;;;;;;5040599;28;20049;-71
2023/07/04 06:53:11;;;;;;;291.15;278.30;;;16.90;99.90;;;;;;5019069;28;20501;-70
2023/07/04 06:55:36;;;;;;;304.77;291.52;;;16.90;99.90;;;;;;5028860;28;20461;-70
2023/07/04 06:58:04;;;;;;;278.88;266.98;;;16.90;99.90;;;;;;5022531;28;20033;-71
2023/07/04 07:00:30;;;;;;;191.68;183.48;;;17.30;99.90;;;;;;5025491;28;20044;-69
2023/07/04 07:02:55;;;;;;;205.80;197.18;;;17.60;99.90;;;;;;5009678;28;20129;-70
2023/07/04 07:05:21;;;;;;;191.45;183.45;;;18.00;99.90;;;;;;5008927;28;20132;-71
2023/07/04 07:07:47;;;;;;;117.10;112.05;;;18.80;99.90;;;;;;5023774;28;20136;-70
2023/07/04 07:10:13;;;;;;;121.90;116.78;;;19.70;99.90;;;;;;5042489;28;20494;-70
2023/07/04 07:12:39;;;;;;;146.25;139.80;;;20.00;99.90;;;;;;5014247;28;20038;-70
2023/07/04 07:15:05;;;;;;;91.63;87.63;;;19.80;99.90;;;;;;4999354;28;20461;-70
2023/07/04 07:17:33;;;;;;;69.53;66.43;;;19.20;99.90;;;;;;5018980;28;20584;-70
2023/07/04 07:19:58;;;;;;;79.20;75.60;;;18.70;99.90;;;;;;5035787;28;20057;-71
2023/07/04 07:22:24;;;;;;;108.35;103.63;;;18.50;99.90;;;;;;5020044;28;20497;-70
2023/07/04 07:24:50;;;;;;;99.78;95.32;;;18.40;99.90;;;;;;5035822;28;20068;-70
2023/07/04 07:27:16;;;;;;;106.07;101.45;;;18.20;99.90;;;;;;5010257;28;20056;-70
2023/07/04 07:29:42;;;;;;;135.95;130.18;;;18.50;99.90;;;;;;5009114;28;20087;-70
2023/07/04 07:32:08;;;;;;;102.22;97.75;;;18.60;99.90;;;;;;5029594;28;20073;-70
2023/07/04 07:34:34;;;;;;;120.95;115.93;;;18.50;99.90;;;;;;5009366;28;20060;-70
2023/07/04 07:36:59;;;;;;;140.27;134.35;;;18.30;99.90;;;;;;5008966;28;20045;-70
2023/07/04 07:39:25;;;;;;;122.55;117.25;;;18.00;99.90;;;;;;5017721;28;20034;-70
2023/07/04 07:41:51;;;;;;;191.00;183.00;;;17.90;99.90;;;;;;5038951;28;20166;-71
2023/07/04 07:44:17;;;;;;;166.88;159.73;;;17.80;99.90;;;;;;5009132;28;20069;-70
2023/07/04 07:46:44;;;;;;;166.73;159.27;;;17.70;99.90;;;;;;5020265;28;20049;-69
2023/07/04 07:49:11;;;;;;;118.82;113.60;;;17.70;99.90;;;;;;5022659;28;20053;-69
2023/07/04 07:51:37;;;;;;;162.38;155.50;;;17.90;99.90;;;;;;5025329;28;20405;-70
2023/07/04 07:54:06;;;;;;;121.10;115.78;;;18.10;99.90;;;;;;5022279;28;20128;-70
2023/07/04 07:56:37;;;;;;;135.93;130.05;;;18.40;99.90;;;;;;5025893;28;20662;-70
2023/07/04 07:59:03;;;;;;;127.22;121.75;;;18.50;99.90;;;;;;5024600;28;20600;-70
2023/07/04 08:01:31;;;;;;;166.27;159.27;;;18.60;99.90;;;;;;5023886;28;20049;-70
2023/07/04 08:04:01;;;;;;;116.35;111.25;;;18.50;99.90;;;;;;5025558;28;20123;-70
2023/07/04 08:06:38;;;;;;;31.00;29.45;;;18.60;99.90;;;;;;5013010;28;20041;-70
2023/07/04 08:09:06;;;;;;;83.55;79.90;;;18.60;99.90;;;;;;5039537;28;20454;-70
2023/07/04 08:11:32;;;;;;;64.90;61.97;;;18.60;99.90;;;;;;5023983;28;20409;-70
2023/07/04 08:13:59;;;;;;;50.60;47.88;;;18.70;99.90;;;;;;5019433;28;20056;-69
2023/07/04 08:16:31;;;;;;;29.60;27.98;;;18.80;99.90;;;;;;5026002;28;20120;-70
2023/07/04 08:18:59;;;;;;;62.38;59.53;;;19.00;99.90;;;;;;5007173;28;20371;-69
2023/07/04 08:21:26;;;;;;;70.35;67.20;;;19.10;99.90;;;;;;5038353;28;20037;-70
2023/07/04 08:23:52;;;;;;;44.70;42.35;;;19.20;99.90;;;;;;5036089;28;20046;-70
2023/07/04 08:26:20;;;;;;;44.30;42.00;;;19.20;99.90;;;;;;5027641;28;20056;-70
2023/07/04 08:28:46;;;;;;;36.88;34.67;;;19.20;99.90;;;;;;5043978;28;20053;-69
2023/07/04 08:31:12;;;;;;;68.50;65.25;;;19.00;99.90;;;;;;5041411;28;20037;-70
2023/07/04 08:33:38;;;;;;;25.23;23.52;;;18.80;99.90;;;;;;5028324;28;20133;-69
2023/07/04 08:36:09;;;;;;;47.40;44.97;;;18.50;99.90;;;;;;5016214;28;20132;-70
2023/07/04 08:38:35;;;;;;;35.17;33.17;;;18.30;99.90;;;;;;5022734;28;20051;-70
2023/07/04 08:41:01;;;;;;;29.98;28.13;;;18.20;99.90;;;;;;5027354;28;20037;-70
2023/07/04 08:43:27;;;;;;;36.75;34.67;;;18.10;99.90;;;;;;5003817;28;20057;-70
2023/07/04 08:45:53;;;;;;;81.30;77.47;;;18.00;99.90;;;;;;5027380;28;20060;-69
2023/07/04 08:48:23;;;;;;;99.25;94.68;;;18.20;99.90;;;;;;5028681;28;20064;-70
2023/07/04 08:50:52;;;;;;;33.65;31.30;;;18.60;99.90;;;;;;5019597;28;20041;-70
2023/07/04 08:53:22;;;;;;;28.13;26.13;;;19.40;99.90;;;;;;5015965;28;20053;-71
2023/07/04 08:55:56;;;;;;;50.72;47.58;;;20.20;99.90;;;;;;5027009;28;20115;-70
2023/07/04 08:58:26;;;;;;;65.07;61.85;;;20.70;99.90;;;;;;5023886;28;20077;-70
2023/07/04 09:00:56;;;;;;;52.03;48.85;;;21.20;99.90;;;;;;5043461;28;20042;-69
2023/07/04 09:03:25;;;;;;;37.17;34.88;;;21.30;99.90;;;;;;5036038;28;20116;-70
2023/07/04 09:06:00;;;;;;;25.58;23.80;;;21.10;99.90;;;;;;5027697;28;20095;-70
2023/07/04 09:08:41;;;;;;;30.52;28.58;;;21.20;99.90;;;;;;5019072;28;20037;-69
2023/07/04 09:11:10;;;;;;;27.77;26.00;;;20.80;99.90;;;;;;4999131;28;20045;-69
2023/07/04 09:13:47;;;;;;;31.95;29.98;;;20.40;99.90;;;;;;5029328;28;20033;-69
2023/07/04 09:16:30;;;;;;;57.17;54.03;;;20.70;99.90;;;;;;5009180;28;20052;-70
2023/07/04 09:19:03;;;;;;;27.23;24.97;;;21.00;99.90;;;;;;5022283;28;20588;-70
2023/07/04 09:21:30;;;;;;;38.15;36.00;;;21.40;99.90;;;;;;5027066;28;20497;-69
2023/07/04 09:23:59;;;;;;;36.08;33.72;;;21.70;99.60;;;;;;5026746;28;20438;-70
2023/07/04 09:26:49;;;;;;;70.22;66.70;;;21.80;99.90;;;;;;4997169;28;20073;-69
2023/07/04 09:29:22;;;;;;;29.85;27.67;;;21.90;98.60;;;;;;5015373;28;20080;-70
2023/07/04 09:31:53;;;;;;;35.25;32.88;;;21.60;99.00;;;;;;5025666;28;20064;-71
2023/07/04 09:34:44;;;;;;;101.72;96.70;;;21.50;99.90;;;;;;5018741;28;20041;-70
2023/07/04 09:37:15;;;;;;;99.28;94.38;;;21.50;98.50;;;;;;5021298;28;20262;-70
2023/07/04 09:39:50;;;;;;;27.17;25.38;;;21.30;98.80;;;;;;5041072;28;20041;-70
2023/07/04 09:42:18;;;;;;;26.92;25.13;;;21.20;99.90;;;;;;5038099;28;20799;-70
2023/07/04 09:44:45;;;;;;;143.88;137.43;;;21.30;99.90;;;;;;5019279;28;20186;-69
2023/07/04 09:47:24;;;;;;;179.25;171.38;;;21.40;99.60;;;;;;5023300;28;20508;-70
2023/07/04 09:50:10;;;;;;;193.77;185.38;;;21.20;97.90;;;;;;5034456;28;20053;-70
2023/07/04 09:52:36;;;;;;;135.00;128.93;;;20.90;97.90;;;;;;5023618;28;20055;-69
2023/07/04 09:55:13;;;;;;;165.95;158.63;;;21.00;98.70;;;;;;5022023;28;20052;-69
2023/07/04 09:57:39;;;;;;;216.43;206.45;;;20.90;98.60;;;;;;5019121;28;20033;-71
2023/07/04 10:00:22;;;;;;;172.85;165.15;;;20.90;96.80;;;;;;4998789;28;20037;-70
2023/07/04 10:02:52;;;;;;;205.57;196.48;;;21.10;98.10;;;;;;5024247;28;20120;-72
2023/07/04 10:05:35;;;;;;;229.82;219.55;;;21.40;97.00;;;;;;5022536;28;20120;-71
2023/07/04 10:08:06;;;;;;;229.20;219.10;;;21.60;95.00;;;;;;5047864;28;20045;-70
2023/07/04 10:10:40;;;;;;;114.22;108.97;;;21.10;95.60;;;;;;5013530;28;20064;-69
2023/07/04 10:13:07;;;;;;;228.27;218.30;;;20.70;97.30;;;;;;5042915;28;20460;-69
2023/07/04 10:15:39;;;;;;;188.82;180.45;;;20.40;97.30;;;;;;5021688;28;20033;-70
2023/07/04 10:18:05;;;;;;;154.00;147.02;;;20.30;97.50;;;;;;5023974;28;20146;-70
2023/07/04 10:20:36;;;;;;;99.57;95.03;;;20.60;97.90;;;;;;5036411;28;20029;-70
2023/07/04 10:23:02;;;;;;;159.73;152.45;;;20.90;97.40;;;;;;5037078;28;20116;-69
2023/07/04 10:25:30;;;;;;;168.07;160.77;;;21.10;97.80;;;;;;5021052;28;20603;-70
2023/07/04 10:28:09;;;;;;;200.88;191.93;;;21.10;96.80;;;;;;5034649;28;20059;-70
2023/07/04 10:30:37;;;;;;;178.82;171.05;;;21.20;96.60;;;;;;5014750;28;20038;-70
2023/07/04 10:33:16;;;;;;;150.10;143.55;;;21.30;96.40;;;;;;5028541;28;20125;-69
2023/07/04 10:35:45;;;;;;;126.45;120.55;;;21.20;95.70;;;;;;5020462;28;20055;-70
2023/07/04 10:38:27;;;;;;;190.48;181.82;;;21.10;96.70;;;;;;5016026;28;20041;-71
2023/07/04 10:40:53;;;;;;;168.70;161.15;;;21.10;94.80;;;;;;5026879;28;20477;-70
2023/07/04 10:43:32;;;;;;;107.65;102.63;;;21.20;95.60;;;;;;5038004;28;20058;-69
2023/07/04 10:46:01;;;;;;;124.80;119.32;;;21.30;96.90;;;;;;5022793;28;20072;-70
2023/07/04 10:48:32;;;;;;;163.30;156.10;;;21.80;96.40;;;;;;5004614;28;20041;-69
2023/07/04 10:51:04;;;;;;;100.53;95.75;;;22.10;93.00;;;;;;5002163;28;20052;-70
2023/07/04 10:53:29;;;;;;;218.82;209.27;;;22.00;93.20;;;;;;5016740;28;20095;-70
2023/07/04 10:56:15;;;;;;;94.70;90.15;;;22.10;94.10;;;;;;5022595;28;20041;-70
2023/07/04 10:58:45;;;;;;;67.05;63.60;;;22.00;91.90;;;;;;5009063;28;20112;-70
2023/07/04 11:01:24;;;;;;;96.97;92.25;;;21.50;92.20;;;;;;5021929;28;20629;-70
2023/07/04 11:04:18;;;;;;;181.13;173.27;;;21.30;93.60;;;;;;5020622;28;20503;-69
2023/07/04 11:07:23;;;;;;;140.18;133.63;;;21.50;92.70;;;;;;5025456;28;20046;-69
2023/07/04 11:09:54;;;;;;;27.60;25.38;;;21.20;91.90;;;;;;5044891;28;20045;-71
2023/07/04 11:12:25;;;;;;;215.73;206.20;;;20.60;92.10;;;;;;5014928;28;20046;-69
2023/07/04 11:14:57;;;;;;;182.40;174.30;;;20.20;93.50;;;;;;5003323;28;20041;-71
2023/07/04 11:17:23;;;;;;;183.35;175.15;;;20.10;93.70;;;;;;5021275;28;20393;-69
2023/07/04 11:19:55;;;;;;;193.00;184.48;;;20.10;93.30;;;;;;5022690;28;20091;-69
2023/07/04 11:22:51;;;;;;;91.05;86.80;;;19.80;93.50;;;;;;5021958;28;20120;-69
2023/07/04 11:25:58;;;;;;;53.72;51.03;;;19.70;95.50;;;;;;5029144;28;20100;-70
2023/07/04 11:28:36;;;;;;;47.35;44.92;;;20.30;96.50;;;;;;5025367;28;20063;-70
2023/07/04 11:31:10;;;;;;;195.80;187.20;;;20.80;96.30;;;;;;5003403;28;20510;-70
2023/07/04 11:34:02;;;;;;;198.73;190.05;;;21.20;93.20;;;;;;5029435;28;20050;-69
2023/07/04 11:36:53;;;;;;;117.65;112.40;;;21.60;93.10;;;;;;5018036;28;20421;-70
2023/07/04 11:39:28;;;;;;;106.93;102.05;;;21.90;91.10;;;;;;5022370;28;20038;-69
2023/07/04 11:41:55;;;;;;;71.32;68.03;;;22.00;91.00;;;;;;5030296;28;20046;-70
2023/07/04 11:44:30;;;;;;;47.75;45.10;;;22.10;90.10;;;;;;5022105;28;20052;-70
2023/07/04 11:47:12;;;;;;;120.28;114.97;;;22.10;88.70;;;;;;5019957;28;20585;-70
2023/07/04 11:49:38;;;;;;;64.53;61.22;;;22.30;92.00;;;;;;5019639;28;20068;-70
2023/07/04 11:52:10;;;;;;;104.97;100.13;;;22.40;90.10;;;;;;5038682;28;20049;-69
2023/07/04 11:54:37;;;;;;;51.38;48.35;;;22.40;90.80;;;;;;5008589;28;20060;-69
2023/07/04 11:57:08;;;;;;;89.95;85.75;;;22.40;90.40;;;;;;5042091;28;20048;-69
2023/07/04 11:59:42;;;;;;;104.50;99.70;;;22.50;90.90;;;;;;5032599;28;20044;-70
2023/07/04 12:02:11;;;;;;;99.68;94.82;;;22.60;91.80;;;;;;5036641;28;20037;-70
2023/07/04 12:04:36;;;;;;;47.03;44.58;;;22.60;91.10;;;;;;5027087;28;20088;-69
2023/07/04 12:07:22;;;;;;;96.15;91.80;;;22.60;90.10;;;;;;5025626;28;20071;-70
2023/07/04 12:10:14;;;;;;;63.70;60.53;;;22.60;91.10;;;;;;5026468;28;20073;-70
2023/07/04 12:12:41;;;;;;;30.05;28.27;;;22.90;86.40;;;;;;5022226;28;20442;-71
2023/07/04 12:15:10;;;;;;;59.10;55.72;;;22.70;86.70;;;;;;5040991;28;20049;-69
2023/07/04 12:17:44;;;;;;;55.30;52.35;;;22.70;89.10;;;;;;5024890;28;20069;-70
2023/07/04 12:20:16;;;;;;;28.85;27.13;;;22.80;89.50;;;;;;5039139;28;20124;-70
2023/07/04 12:22:56;;;;;;;27.67;25.92;;;22.70;88.90;;;;;;5027336;28;20053;-70
2023/07/04 12:25:27;;;;;;;17.02;15.68;;;22.70;87.90;;;;;;5019159;28;20046;-70
2023/07/04 12:27:56;;;;;;;17.10;15.80;;;22.60;83.30;;;;;;5021905;28;20137;-70
2023/07/04 12:30:22;;;;;;;13.68;12.50;;;22.30;84.90;;;;;;5026423;28;20045;-70